Main page
METAR-TAF:

METAR-TAF

Airports :

Florence, Italy

Florence Airport

latitude: 43-48N, longitude: 011-12E, elevation: 40 m

Current weather observation

The report was made 38 minutes ago, at 21:50 UTC
Wind 3 kt from variable directions
Temperature 0°C
Humidity 86%
Pressure 1025 hPa
Visibility 10 km or more
no clouds below 1500 m and no cumulonimbus

METAR: LIRQ 182150Z VRB03KT CAVOK 00/M02 Q1025

Time: 23:28 (22:28 UTC)

Forecast

The report was made 5 hours and 28 minutes ago, at 17:00 UTC
Forecast valid from 18 at 18 UTC to 19 at 18 UTC
Wind 5 kt from variable directions
Visibility 10 km or more
no clouds below 1500 m and no cumulonimbus

TAF: LIRQ 181700Z 1818/1918 VRB05KT CAVOK

Weather observations and forecasts of more than 4000 airports (METAR and TAF reports).

The available stations are represented by yellow and red dots on the map.

Hover mouse over dot to see the name of the station.

Then click to see weather observations and forecasts.

To change the map : click on the green buttons with a black cross to zoom in, on the green button with a dash to zoom out, or on the green arrows for adjacent maps.


METAR-TAF: